Time;durP1;ratioP1;P1;durP2;ratioP2;P2;SDS_P1;SDS_P2;PMS_P1;PMS_P2;Temp;Humidity;BMP_temperature;BMP_pressure;BME280_temperature;BME280_humidity;BME280_pressure;Samples;Min_cycle;Max_cycle;Signal;HPM_P1;HPM_P2
2024/04/15 00:01:57;;;;;;;3.33;2.10;;;15.00;99.90;;;;;;5449755;26;20467;-75
2024/04/15 00:04:23;;;;;;;2.23;2.03;;;15.00;99.90;;;;;;5449923;26;20273;-75
2024/04/15 00:06:51;;;;;;;3.07;2.40;;;15.00;99.90;;;;;;5449585;26;20511;-75
2024/04/15 00:09:17;;;;;;;4.13;2.93;;;15.00;99.90;;;;;;5449150;26;20234;-75
2024/04/15 00:11:48;;;;;;;4.43;2.53;;;15.00;99.90;;;;;;5449834;26;20538;-75
2024/04/15 00:14:16;;;;;;;5.63;2.50;;;15.00;99.90;;;;;;5445058;26;20585;-75
2024/04/15 00:16:44;;;;;;;3.23;2.70;;;15.00;99.90;;;;;;5449724;26;20611;-75
2024/04/15 00:19:10;;;;;;;3.33;2.83;;;15.00;99.90;;;;;;5448789;26;20616;-75
2024/04/15 00:21:38;;;;;;;3.40;3.07;;;15.00;99.90;;;;;;5449690;26;20475;-74
2024/04/15 00:24:05;;;;;;;3.93;2.10;;;15.00;99.90;;;;;;5449546;26;20226;-75
2024/04/15 00:26:33;;;;;;;3.03;2.53;;;15.00;99.90;;;;;;5449480;26;20513;-74
2024/04/15 00:28:59;;;;;;;2.97;2.70;;;14.90;99.90;;;;;;5448697;26;20459;-75
2024/04/15 00:31:30;;;;;;;3.07;2.33;;;14.90;99.90;;;;;;5449622;26;20601;-75
2024/04/15 00:33:56;;;;;;;2.90;2.53;;;14.90;99.90;;;;;;5449526;26;20647;-75
2024/04/15 00:36:24;;;;;;;2.30;2.00;;;14.90;99.90;;;;;;5449608;26;21114;-75
2024/04/15 00:38:50;;;;;;;2.17;2.07;;;14.90;99.90;;;;;;5448714;26;20576;-75
2024/04/15 00:41:19;;;;;;;3.60;2.33;;;14.80;99.90;;;;;;5449125;26;20896;-74
2024/04/15 00:43:44;;;;;;;4.13;2.23;;;14.80;99.90;;;;;;5449542;26;20306;-75
2024/04/15 00:46:13;;;;;;;2.53;2.33;;;14.80;99.90;;;;;;5449073;26;20475;-75
2024/04/15 00:48:42;;;;;;;2.57;2.07;;;14.90;99.90;;;;;;5448802;26;20625;-74
2024/04/15 00:51:11;;;;;;;2.33;2.13;;;14.90;99.90;;;;;;5448766;26;20605;-76
2024/04/15 00:53:37;;;;;;;2.30;2.10;;;15.00;99.90;;;;;;5435047;26;21066;-76
2024/04/15 00:56:07;;;;;;;2.17;1.97;;;15.10;99.90;;;;;;5448899;26;20581;-75
2024/04/15 00:58:34;;;;;;;1.83;1.73;;;15.20;99.90;;;;;;5452436;26;20459;-75
2024/04/15 01:01:04;;;;;;;3.67;1.80;;;15.30;99.90;;;;;;5452150;26;20506;-75
2024/04/15 01:03:29;;;;;;;1.77;1.67;;;15.40;99.90;;;;;;5452611;26;20580;-76
2024/04/15 01:06:01;;;;;;;1.70;1.60;;;15.40;99.90;;;;;;5452672;26;20960;-75
2024/04/15 01:08:29;;;;;;;3.07;2.30;;;15.50;99.90;;;;;;5452561;26;20773;-75
2024/04/15 01:10:58;;;;;;;2.40;1.67;;;15.50;99.90;;;;;;5451963;26;20509;-75
2024/04/15 01:13:24;;;;;;;1.80;1.70;;;15.50;99.90;;;;;;5452568;26;20610;-76
2024/04/15 01:15:57;;;;;;;2.20;1.60;;;15.50;99.90;;;;;;5452708;26;20847;-75
2024/04/15 01:18:23;;;;;;;1.77;1.67;;;15.50;99.90;;;;;;5449682;26;20475;-75
2024/04/15 01:20:52;;;;;;;1.93;1.57;;;15.50;99.90;;;;;;5452240;26;20557;-75
2024/04/15 01:23:23;;;;;;;2.53;1.90;;;15.50;99.90;;;;;;5448626;26;20234;-76
2024/04/15 01:25:54;;;;;;;1.90;1.53;;;15.50;99.90;;;;;;5452845;26;20463;-75
2024/04/15 01:28:20;;;;;;;2.33;1.60;;;15.50;99.90;;;;;;5448573;26;20479;-75
2024/04/15 01:30:48;;;;;;;1.60;1.50;;;15.50;99.90;;;;;;5452185;26;20568;-75
2024/04/15 01:33:14;;;;;;;2.00;1.60;;;15.50;99.90;;;;;;5452018;26;20475;-75
2024/04/15 01:35:43;;;;;;;1.60;1.50;;;15.40;99.90;;;;;;5452788;26;20516;-76
2024/04/15 01:38:09;;;;;;;2.27;1.83;;;15.40;99.90;;;;;;5451917;26;20594;-75
2024/04/15 01:40:37;;;;;;;1.93;1.50;;;15.30;99.90;;;;;;5451840;26;21134;-76
2024/04/15 01:43:06;;;;;;;2.37;1.70;;;15.20;99.90;;;;;;5452137;26;20273;-75
2024/04/15 01:45:35;;;;;;;1.97;1.87;;;15.20;99.90;;;;;;5452232;26;20528;-75
2024/04/15 01:48:01;;;;;;;2.60;2.10;;;15.20;99.90;;;;;;5452789;26;20585;-75
2024/04/15 01:50:30;;;;;;;2.47;1.53;;;15.10;99.90;;;;;;5452650;26;21026;-76
2024/04/15 01:52:55;;;;;;;1.90;1.70;;;15.10;99.90;;;;;;5452506;26;20567;-76
2024/04/15 01:55:24;;;;;;;1.70;1.60;;;15.10;99.90;;;;;;5450450;26;21004;-75
2024/04/15 01:57:50;;;;;;;1.40;1.30;;;15.00;99.90;;;;;;5463343;26;20340;-75
2024/04/15 02:00:21;;;;;;;1.43;1.33;;;15.00;99.90;;;;;;5467722;26;20467;-75
2024/04/15 02:02:46;;;;;;;2.10;1.60;;;15.00;99.90;;;;;;5468670;26;20230;-75
2024/04/15 02:05:15;;;;;;;2.70;1.83;;;14.90;99.90;;;;;;5469067;26;20564;-75
2024/04/15 02:07:40;;;;;;;1.73;1.50;;;14.90;99.90;;;;;;5462656;26;20234;-75
2024/04/15 02:10:09;;;;;;;1.50;1.40;;;14.90;99.90;;;;;;5450423;26;20468;-75
2024/04/15 02:12:35;;;;;;;1.63;1.53;;;14.90;99.90;;;;;;5440165;26;20233;-75
2024/04/15 02:15:03;;;;;;;4.80;2.13;;;14.90;99.90;;;;;;5451525;26;20567;-75
2024/04/15 02:17:32;;;;;;;2.70;1.67;;;14.90;99.90;;;;;;5451633;26;20305;-75
2024/04/15 02:20:00;;;;;;;2.67;1.50;;;15.00;99.90;;;;;;5451644;26;20471;-76
2024/04/15 02:22:26;;;;;;;1.67;1.57;;;14.90;99.90;;;;;;5449822;26;20578;-76
2024/04/15 02:24:55;;;;;;;1.80;1.50;;;14.90;99.90;;;;;;5451934;26;21011;-75
2024/04/15 02:27:20;;;;;;;3.13;1.30;;;15.00;99.90;;;;;;5451193;26;20242;-76
2024/04/15 02:29:49;;;;;;;1.50;1.40;;;15.00;99.90;;;;;;5451231;26;20573;-76
2024/04/15 02:32:14;;;;;;;1.60;1.40;;;15.00;99.90;;;;;;5450884;26;20312;-75
2024/04/15 02:34:47;;;;;;;2.00;1.60;;;15.00;99.90;;;;;;5451486;26;20471;-76
2024/04/15 02:37:12;;;;;;;2.80;1.40;;;15.00;99.90;;;;;;5451183;26;20312;-76
2024/04/15 02:39:41;;;;;;;2.80;2.03;;;15.00;99.90;;;;;;5450820;26;20596;-76
2024/04/15 02:42:07;;;;;;;1.60;1.50;;;15.00;99.90;;;;;;5451026;26;20359;-75
2024/04/15 02:44:35;;;;;;;1.60;1.50;;;15.00;99.90;;;;;;5450989;26;20570;-76
2024/04/15 02:47:01;;;;;;;2.60;1.20;;;15.00;99.90;;;;;;5451186;26;20367;-75
2024/04/15 02:49:29;;;;;;;1.90;1.40;;;15.00;99.90;;;;;;5448869;26;20483;-76
2024/04/15 02:51:58;;;;;;;1.80;1.70;;;15.00;99.90;;;;;;5451122;26;20230;-76
2024/04/15 02:54:26;;;;;;;4.30;1.93;;;15.00;99.90;;;;;;5450629;26;20585;-75
2024/04/15 02:56:52;;;;;;;2.00;1.70;;;15.00;99.90;;;;;;5450846;26;20873;-76
2024/04/15 02:59:20;;;;;;;4.13;1.60;;;15.00;99.90;;;;;;5450304;26;20470;-75
2024/04/15 03:01:46;;;;;;;1.47;1.37;;;15.00;99.90;;;;;;5451229;26;20742;-75
2024/04/15 03:04:14;;;;;;;1.70;1.60;;;15.00;99.90;;;;;;5442499;26;20516;-75
2024/04/15 03:06:40;;;;;;;2.13;1.90;;;15.00;99.90;;;;;;5437291;26;20293;-75
2024/04/15 03:09:11;;;;;;;1.87;1.47;;;15.00;99.90;;;;;;5431710;26;20997;-75
2024/04/15 03:11:37;;;;;;;2.00;1.80;;;15.00;99.90;;;;;;5435887;26;20659;-74
2024/04/15 03:14:05;;;;;;;2.30;1.77;;;15.00;99.90;;;;;;5433391;26;20496;-74
2024/04/15 03:16:31;;;;;;;2.83;1.90;;;15.00;99.90;;;;;;5437064;26;20333;-74
2024/04/15 03:18:59;;;;;;;2.00;1.80;;;15.00;99.90;;;;;;5439212;26;20471;-74
2024/04/15 03:21:25;;;;;;;2.73;2.30;;;14.90;99.90;;;;;;5441666;26;20281;-73
2024/04/15 03:23:53;;;;;;;2.60;1.97;;;14.90;99.90;;;;;;5436310;26;21154;-75
2024/04/15 03:26:22;;;;;;;2.53;2.00;;;14.90;99.90;;;;;;5435163;26;20876;-74
2024/04/15 03:28:50;;;;;;;5.13;2.40;;;14.90;99.90;;;;;;5437135;26;20620;-74
2024/04/15 03:31:16;;;;;;;2.20;1.93;;;14.90;99.90;;;;;;5434701;26;20565;-75
2024/04/15 03:33:44;;;;;;;4.87;2.00;;;14.90;99.90;;;;;;5438703;26;20475;-75
2024/04/15 03:36:10;;;;;;;4.13;2.00;;;14.90;99.90;;;;;;5433533;26;20246;-74
2024/04/15 03:38:39;;;;;;;7.33;1.70;;;14.80;99.90;;;;;;5438731;26;20475;-76
2024/04/15 03:41:08;;;;;;;3.27;1.50;;;14.80;99.90;;;;;;5433786;26;20234;-75
2024/04/15 03:43:39;;;;;;;1.90;1.30;;;14.80;99.90;;;;;;5439109;26;20890;-75
2024/04/15 03:46:04;;;;;;;1.70;1.60;;;14.80;99.90;;;;;;5434571;26;20968;-75
2024/04/15 03:48:33;;;;;;;2.73;2.20;;;14.80;99.90;;;;;;5438635;26;20475;-76
2024/04/15 03:51:01;;;;;;;2.73;1.97;;;14.70;99.90;;;;;;5435000;26;20832;-74
2024/04/15 03:53:30;;;;;;;2.47;2.27;;;14.70;99.90;;;;;;5438739;26;20471;-74
2024/04/15 03:55:56;;;;;;;2.47;2.00;;;14.70;99.90;;;;;;5438748;26;21157;-74
2024/04/15 03:58:24;;;;;;;1.70;1.60;;;14.70;99.90;;;;;;5433783;26;20480;-73
2024/04/15 04:00:59;;;;;;;1.87;1.70;;;14.60;99.90;;;;;;5435218;26;20468;-74
2024/04/15 04:03:28;;;;;;;2.00;1.70;;;14.60;99.90;;;;;;5438766;26;20530;-73
2024/04/15 04:05:55;;;;;;;2.30;1.53;;;14.60;99.90;;;;;;5450043;26;20575;-74
2024/04/15 04:08:23;;;;;;;2.43;2.20;;;14.60;99.90;;;;;;5449056;26;20905;-73
2024/04/15 04:10:52;;;;;;;1.63;1.50;;;14.50;99.90;;;;;;5449561;26;20471;-74
2024/04/15 04:13:18;;;;;;;2.60;2.03;;;14.50;99.90;;;;;;5449787;26;20472;-74
2024/04/15 04:15:46;;;;;;;1.77;1.67;;;14.50;99.90;;;;;;5452211;26;20593;-74
2024/04/15 04:18:15;;;;;;;2.50;1.90;;;14.50;99.90;;;;;;5451862;26;20737;-73
2024/04/15 04:20:43;;;;;;;2.37;1.60;;;14.40;99.90;;;;;;5449355;26;20535;-74
2024/04/15 04:23:09;;;;;;;2.10;1.77;;;14.40;99.90;;;;;;5449595;26;20467;-74
2024/04/15 04:25:37;;;;;;;1.77;1.67;;;14.40;99.90;;;;;;5449401;26;20593;-74
2024/04/15 04:28:04;;;;;;;1.97;1.60;;;14.40;99.90;;;;;;5449423;26;20346;-74
2024/04/15 04:30:35;;;;;;;2.33;1.83;;;14.40;99.90;;;;;;5448860;26;20585;-73
2024/04/15 04:33:03;;;;;;;3.03;1.50;;;14.40;99.90;;;;;;5452505;26;20467;-74
2024/04/15 04:35:40;;;;;;;1.97;1.87;;;14.40;99.90;;;;;;5452719;26;20885;-73
2024/04/15 04:38:06;;;;;;;3.03;1.60;;;14.40;99.90;;;;;;5453181;26;20873;-74
2024/04/15 04:40:35;;;;;;;1.87;1.73;;;14.40;99.90;;;;;;5453828;26;20571;-74
2024/04/15 04:43:01;;;;;;;1.80;1.70;;;14.40;99.90;;;;;;5453029;26;20983;-74
2024/04/15 04:45:29;;;;;;;2.37;1.80;;;14.40;99.90;;;;;;5452678;26;20527;-73
2024/04/15 04:47:55;;;;;;;3.67;1.57;;;14.30;99.90;;;;;;5452771;26;20237;-74
2024/04/15 04:50:25;;;;;;;5.27;2.73;;;14.30;99.90;;;;;;5451954;26;20463;-73
2024/04/15 04:52:53;;;;;;;3.17;1.67;;;14.30;99.90;;;;;;5453204;26;20431;-73
2024/04/15 04:55:21;;;;;;;2.27;1.83;;;14.30;99.90;;;;;;5452766;26;20526;-73
2024/04/15 04:57:47;;;;;;;1.93;1.57;;;14.30;99.90;;;;;;5452798;26;21007;-73
2024/04/15 05:00:16;;;;;;;2.33;2.10;;;14.30;99.90;;;;;;5453156;26;20540;-74
2024/04/15 05:02:42;;;;;;;2.07;1.50;;;14.30;99.90;;;;;;5440381;26;20234;-74
2024/04/15 05:05:10;;;;;;;2.00;1.60;;;14.30;99.90;;;;;;5452648;26;21121;-74
2024/04/15 05:07:36;;;;;;;2.50;1.60;;;14.40;99.90;;;;;;5439188;26;20250;-75
2024/04/15 05:10:07;;;;;;;1.57;1.47;;;14.30;99.90;;;;;;5452230;26;20830;-75
2024/04/15 05:12:34;;;;;;;1.73;1.63;;;14.30;99.90;;;;;;5452340;26;20588;-74
2024/04/15 05:15:02;;;;;;;1.90;1.57;;;14.30;99.90;;;;;;5452620;26;20515;-74
2024/04/15 05:17:28;;;;;;;1.67;1.40;;;14.30;99.90;;;;;;5452113;26;21067;-75
2024/04/15 05:19:56;;;;;;;3.37;1.63;;;14.30;99.90;;;;;;5451859;26;20535;-74
2024/04/15 05:22:22;;;;;;;1.40;1.30;;;14.30;99.90;;;;;;5452101;26;20347;-74
2024/04/15 05:24:50;;;;;;;1.97;1.43;;;14.40;99.90;;;;;;5452535;26;20470;-74
2024/04/15 05:27:19;;;;;;;1.40;1.30;;;14.30;99.90;;;;;;5452617;26;20294;-74
2024/04/15 05:29:47;;;;;;;1.63;1.30;;;14.30;99.90;;;;;;5439548;26;21051;-74
2024/04/15 05:32:13;;;;;;;2.00;1.53;;;14.30;99.90;;;;;;5452028;26;20531;-74
2024/04/15 05:34:43;;;;;;;3.20;1.60;;;14.20;99.90;;;;;;5452497;26;20597;-75
2024/04/15 05:37:09;;;;;;;1.83;1.13;;;14.20;99.90;;;;;;5452981;26;20276;-75
2024/04/15 05:39:37;;;;;;;1.27;1.10;;;14.20;99.90;;;;;;5450187;26;20463;-74
2024/04/15 05:42:03;;;;;;;2.33;1.30;;;14.20;99.90;;;;;;5452129;26;20238;-74
2024/04/15 05:44:34;;;;;;;1.20;1.07;;;14.20;99.90;;;;;;5451838;26;20896;-74
2024/04/15 05:47:00;;;;;;;1.60;1.27;;;14.10;99.90;;;;;;5451846;26;20988;-74
2024/04/15 05:49:30;;;;;;;1.70;1.40;;;14.10;99.90;;;;;;5451505;26;20575;-74
2024/04/15 05:51:56;;;;;;;1.40;1.20;;;14.10;99.90;;;;;;5451758;26;20261;-74
2024/04/15 05:54:24;;;;;;;1.67;1.13;;;14.10;99.90;;;;;;5451726;26;20471;-75
2024/04/15 05:56:50;;;;;;;2.00;1.30;;;14.10;99.90;;;;;;5452044;26;20275;-74
2024/04/15 05:59:18;;;;;;;2.27;1.07;;;14.10;99.90;;;;;;5451741;26;20477;-72
2024/04/15 06:01:47;;;;;;;2.80;1.40;;;14.10;99.90;;;;;;5451703;26;20238;-75
2024/04/15 06:04:15;;;;;;;2.70;1.47;;;14.10;99.90;;;;;;5451651;26;20574;-74
2024/04/15 06:06:41;;;;;;;1.60;1.20;;;14.10;99.90;;;;;;5451675;26;20498;-74
2024/04/15 06:09:10;;;;;;;1.50;1.30;;;14.10;99.90;;;;;;5451659;26;20992;-74
2024/04/15 06:11:35;;;;;;;1.40;1.30;;;14.10;99.90;;;;;;5448880;26;20229;-74
2024/04/15 06:14:04;;;;;;;2.80;1.00;;;14.10;99.90;;;;;;5451638;26;20475;-75
2024/04/15 06:16:30;;;;;;;1.50;1.20;;;14.20;99.90;;;;;;5450914;26;20268;-74
2024/04/15 06:19:01;;;;;;;2.07;1.50;;;14.10;99.90;;;;;;5450892;26;20479;-74
2024/04/15 06:21:26;;;;;;;1.70;1.37;;;14.20;99.90;;;;;;5451732;26;20847;-73
2024/04/15 06:23:55;;;;;;;2.97;1.67;;;14.20;99.90;;;;;;5451577;26;20479;-74
2024/04/15 06:26:20;;;;;;;1.70;1.30;;;14.20;99.90;;;;;;5451404;26;20233;-72
2024/04/15 06:28:49;;;;;;;1.80;1.23;;;14.10;99.90;;;;;;5450836;26;21169;-74
2024/04/15 06:31:15;;;;;;;4.13;1.60;;;14.00;99.90;;;;;;5451421;26;20934;-73
2024/04/15 06:33:43;;;;;;;1.20;1.10;;;14.00;99.90;;;;;;5451094;26;20456;-74
2024/04/15 06:36:11;;;;;;;1.53;1.43;;;13.90;99.90;;;;;;5451654;26;20293;-74
2024/04/15 06:38:40;;;;;;;3.10;1.60;;;13.80;99.90;;;;;;5437174;26;20523;-73
2024/04/15 06:41:05;;;;;;;1.60;1.40;;;13.80;99.90;;;;;;5451284;26;21043;-73
2024/04/15 06:43:34;;;;;;;3.10;1.63;;;13.70;99.90;;;;;;5451179;26;20576;-73
2024/04/15 06:46:00;;;;;;;2.67;1.20;;;13.70;99.90;;;;;;5451247;26;20778;-73
2024/04/15 06:48:28;;;;;;;1.30;1.20;;;13.70;99.90;;;;;;5446706;26;20522;-73
2024/04/15 06:50:54;;;;;;;2.43;1.20;;;13.80;99.90;;;;;;5440893;26;20234;-73
2024/04/15 06:53:25;;;;;;;1.60;1.20;;;13.80;99.90;;;;;;5451146;26;20503;-74
2024/04/15 06:55:51;;;;;;;2.90;1.50;;;13.80;99.90;;;;;;5449937;26;20580;-73
2024/04/15 06:58:20;;;;;;;1.57;1.47;;;13.80;99.90;;;;;;5450766;26;20471;-73
2024/04/15 07:00:46;;;;;;;1.93;1.27;;;13.90;99.90;;;;;;5450437;26;20234;-74
2024/04/15 07:03:14;;;;;;;1.83;1.40;;;13.90;99.90;;;;;;5450620;26;20471;-74
2024/04/15 07:05:40;;;;;;;2.93;1.57;;;13.90;99.90;;;;;;5450618;26;20463;-74
2024/04/15 07:08:08;;;;;;;2.60;1.63;;;13.90;99.90;;;;;;5450870;26;20475;-74
2024/04/15 07:10:37;;;;;;;1.53;1.43;;;13.90;99.90;;;;;;5445991;26;20347;-73
2024/04/15 07:13:06;;;;;;;2.70;1.90;;;13.90;99.90;;;;;;5450879;26;20467;-73
2024/04/15 07:15:32;;;;;;;2.37;1.50;;;13.90;99.90;;;;;;5450620;26;20509;-74
2024/04/15 07:18:00;;;;;;;2.70;1.67;;;13.90;99.90;;;;;;5450546;26;20471;-73
2024/04/15 07:20:26;;;;;;;2.13;1.67;;;13.80;99.90;;;;;;5450311;26;20512;-74
2024/04/15 07:22:54;;;;;;;2.57;1.57;;;13.80;99.90;;;;;;5450621;26;20479;-74
2024/04/15 07:25:20;;;;;;;3.83;1.97;;;13.80;99.90;;;;;;5450727;26;20739;-73
2024/04/15 07:27:52;;;;;;;2.37;1.40;;;13.80;99.90;;;;;;5450383;26;20475;-73
2024/04/15 07:30:18;;;;;;;7.17;1.90;;;13.80;99.90;;;;;;5450063;26;20298;-73
2024/04/15 07:32:47;;;;;;;5.40;1.90;;;13.80;99.90;;;;;;5450009;26;20823;-73
2024/04/15 07:35:13;;;;;;;3.60;1.80;;;13.90;99.90;;;;;;5450583;26;20467;-73
2024/04/15 07:37:41;;;;;;;2.90;1.53;;;13.90;99.90;;;;;;5450265;26;20463;-73
2024/04/15 07:40:08;;;;;;;1.73;1.50;;;14.00;99.90;;;;;;5450269;26;20526;-74
2024/04/15 07:42:36;;;;;;;4.80;1.90;;;14.20;99.90;;;;;;5450635;26;20519;-73
2024/04/15 07:45:05;;;;;;;4.70;1.90;;;14.30;99.90;;;;;;5450480;26;20471;-74
2024/04/15 07:47:33;;;;;;;1.70;1.40;;;14.30;99.90;;;;;;5450065;26;20581;-73
2024/04/15 07:49:59;;;;;;;2.50;1.57;;;14.40;99.90;;;;;;5441082;26;20463;-73
2024/04/15 07:52:28;;;;;;;2.33;1.90;;;14.40;99.90;;;;;;5450136;26;20589;-72
2024/04/15 07:54:54;;;;;;;1.80;1.60;;;14.50;99.90;;;;;;5450058;26;20726;-74
2024/04/15 07:57:23;;;;;;;1.33;1.20;;;14.60;99.90;;;;;;5450105;26;20482;-73
2024/04/15 07:59:48;;;;;;;2.60;1.60;;;14.60;99.90;;;;;;5449817;26;20581;-73
2024/04/15 08:02:19;;;;;;;2.30;1.63;;;14.70;99.90;;;;;;5450000;26;20999;-73
2024/04/15 08:04:48;;;;;;;2.20;1.60;;;14.60;99.90;;;;;;5449834;26;20302;-74
2024/04/15 08:07:14;;;;;;;7.23;1.97;;;14.60;99.90;;;;;;5451763;26;20529;-73
2024/04/15 08:09:42;;;;;;;3.47;1.70;;;14.50;99.90;;;;;;5452937;26;20459;-73
2024/04/15 08:12:08;;;;;;;2.40;1.67;;;14.50;99.90;;;;;;5453607;26;20334;-73
2024/04/15 08:14:36;;;;;;;6.53;2.10;;;14.50;99.90;;;;;;5453441;26;20463;-73
2024/04/15 08:17:03;;;;;;;2.80;1.70;;;14.50;99.90;;;;;;5453229;26;20838;-73
2024/04/15 08:19:33;;;;;;;2.63;1.67;;;14.50;99.90;;;;;;5453589;26;20471;-73
2024/04/15 08:21:59;;;;;;;2.93;1.40;;;14.40;99.90;;;;;;5444927;26;20606;-74
2024/04/15 08:24:28;;;;;;;3.27;2.20;;;14.50;99.90;;;;;;5453560;26;20865;-74
2024/04/15 08:26:54;;;;;;;2.37;1.90;;;14.50;99.90;;;;;;5447863;26;20234;-73
2024/04/15 08:29:22;;;;;;;4.13;2.07;;;14.70;99.90;;;;;;5449424;26;20600;-74
2024/04/15 08:31:48;;;;;;;4.00;1.90;;;14.80;99.90;;;;;;5453214;26;20458;-73
2024/04/15 08:34:17;;;;;;;1.93;1.50;;;14.90;99.90;;;;;;5453134;26;20532;-73
2024/04/15 08:36:45;;;;;;;4.30;1.80;;;15.00;99.90;;;;;;5452980;26;20602;-74
2024/04/15 08:39:13;;;;;;;2.60;1.77;;;15.00;99.90;;;;;;5453431;26;20585;-74
2024/04/15 08:41:47;;;;;;;3.37;1.93;;;15.00;99.90;;;;;;5452880;26;20463;-72
2024/04/15 08:44:20;;;;;;;4.23;1.70;;;15.10;99.90;;;;;;5453020;26;20463;-72
2024/04/15 08:46:48;;;;;;;2.53;2.00;;;15.00;99.90;;;;;;5452811;26;20463;-72
2024/04/15 08:49:16;;;;;;;5.87;2.17;;;15.00;99.90;;;;;;5452302;26;20535;-71
2024/04/15 08:51:45;;;;;;;2.43;1.53;;;15.10;99.90;;;;;;5452721;26;20467;-72
2024/04/15 08:54:14;;;;;;;3.83;2.00;;;15.20;99.90;;;;;;5452841;26;20483;-71
2024/04/15 08:56:43;;;;;;;1.70;1.60;;;15.20;99.90;;;;;;5452793;26;20527;-71
2024/04/15 08:59:16;;;;;;;2.07;1.87;;;15.30;99.90;;;;;;5452346;26;20487;-71
2024/04/15 09:01:43;;;;;;;3.00;1.97;;;15.50;99.90;;;;;;5447717;26;20475;-71
2024/04/15 09:04:12;;;;;;;3.50;2.33;;;15.50;99.90;;;;;;5452530;26;20478;-71
2024/04/15 09:06:38;;;;;;;11.13;2.20;;;15.60;99.90;;;;;;5452697;26;20470;-71
2024/04/15 09:09:10;;;;;;;1.70;1.60;;;15.80;99.90;;;;;;5452119;26;20529;-71
2024/04/15 09:11:36;;;;;;;2.37;1.60;;;16.20;99.90;;;;;;5445889;26;20948;-71
2024/04/15 09:14:04;;;;;;;3.93;1.77;;;16.50;99.90;;;;;;5452258;26;20471;-71
2024/04/15 09:16:30;;;;;;;1.73;1.63;;;16.70;99.90;;;;;;5452779;26;20517;-71
2024/04/15 09:18:58;;;;;;;2.37;1.87;;;17.00;99.90;;;;;;5451142;26;20836;-71
2024/04/15 09:21:24;;;;;;;2.00;1.80;;;17.10;99.90;;;;;;5452453;26;20640;-71
2024/04/15 09:23:53;;;;;;;2.27;2.03;;;17.00;99.90;;;;;;5452174;26;20894;-71
2024/04/15 09:26:21;;;;;;;2.90;2.13;;;17.00;99.90;;;;;;5452172;26;20527;-71
2024/04/15 09:28:50;;;;;;;2.10;1.53;;;16.90;99.90;;;;;;5451925;26;20605;-71
2024/04/15 09:31:15;;;;;;;2.03;1.70;;;17.10;99.90;;;;;;5452221;26;20471;-71
2024/04/15 09:33:44;;;;;;;1.80;1.70;;;17.40;99.90;;;;;;5452400;26;21136;-71
2024/04/15 09:36:10;;;;;;;2.00;1.77;;;17.80;99.90;;;;;;5452340;26;20226;-71
2024/04/15 09:38:41;;;;;;;1.87;1.50;;;17.80;99.90;;;;;;5452185;26;20862;-72
2024/04/15 09:41:10;;;;;;;2.40;1.40;;;17.70;99.90;;;;;;5445340;26;20468;-71
2024/04/15 09:43:43;;;;;;;1.83;1.70;;;17.50;99.90;;;;;;5437705;26;20463;-71
2024/04/15 09:46:10;;;;;;;2.10;1.50;;;17.30;99.90;;;;;;5446384;26;20464;-71
2024/04/15 09:48:41;;;;;;;2.57;1.67;;;17.20;99.90;;;;;;5437517;26;20464;-72
2024/04/15 09:51:17;;;;;;;1.97;1.70;;;17.30;99.90;;;;;;5445184;26;21238;-72
2024/04/15 09:53:49;;;;;;;1.90;1.20;;;17.30;99.90;;;;;;5439441;26;21085;-72
2024/04/15 09:56:24;;;;;;;5.00;1.70;;;17.30;99.90;;;;;;5443846;26;20464;-72
2024/04/15 09:58:56;;;;;;;2.00;1.50;;;17.20;99.90;;;;;;5451466;26;20467;-72
2024/04/15 10:01:25;;;;;;;1.63;1.40;;;17.10;99.90;;;;;;5452051;26;20518;-72
2024/04/15 10:03:55;;;;;;;2.13;1.57;;;17.20;99.90;;;;;;5451731;26;20817;-72
2024/04/15 10:06:28;;;;;;;3.17;1.70;;;17.50;99.90;;;;;;5451738;26;20463;-72
2024/04/15 10:08:57;;;;;;;2.07;1.67;;;17.70;99.90;;;;;;5451340;26;20455;-72
2024/04/15 10:11:27;;;;;;;1.50;1.30;;;17.90;99.90;;;;;;5451719;26;20463;-72
2024/04/15 10:13:57;;;;;;;1.80;1.60;;;17.90;99.90;;;;;;5451534;26;20460;-72
2024/04/15 10:16:25;;;;;;;1.50;1.40;;;17.70;99.90;;;;;;5451581;26;20471;-72
2024/04/15 10:18:52;;;;;;;2.43;1.30;;;17.90;99.90;;;;;;5450942;26;20459;-72
2024/04/15 10:21:21;;;;;;;2.10;1.60;;;18.30;99.90;;;;;;5451742;26;20479;-72
2024/04/15 10:23:47;;;;;;;2.90;1.93;;;18.40;99.90;;;;;;5451686;26;20605;-72
2024/04/15 10:26:19;;;;;;;1.40;1.20;;;18.60;99.90;;;;;;5451799;26;20560;-72
2024/04/15 10:28:44;;;;;;;1.63;1.43;;;18.60;99.90;;;;;;5450190;26;20980;-72
2024/04/15 10:31:18;;;;;;;3.90;2.13;;;18.40;99.90;;;;;;5450792;26;20531;-72
2024/04/15 10:33:50;;;;;;;1.93;1.33;;;18.10;99.90;;;;;;5451435;26;20277;-72
2024/04/15 10:36:19;;;;;;;2.40;1.60;;;17.70;99.90;;;;;;5446913;26;20803;-71
2024/04/15 10:38:48;;;;;;;3.27;1.33;;;17.30;99.90;;;;;;5451566;26;20939;-73
2024/04/15 10:41:22;;;;;;;1.93;1.50;;;17.00;99.90;;;;;;5446576;26;20936;-73
2024/04/15 10:43:48;;;;;;;2.20;1.60;;;16.70;99.90;;;;;;5451588;26;20467;-73
2024/04/15 10:46:22;;;;;;;4.13;1.87;;;16.40;99.90;;;;;;5446099;26;20463;-73
2024/04/15 10:48:47;;;;;;;2.23;1.63;;;16.30;99.90;;;;;;5451064;26;20540;-73
2024/04/15 10:51:16;;;;;;;2.03;1.53;;;16.20;99.90;;;;;;5445878;26;20600;-73
2024/04/15 10:53:42;;;;;;;1.83;1.50;;;16.20;99.90;;;;;;5451366;26;20233;-73
2024/04/15 10:56:12;;;;;;;1.57;1.40;;;16.10;99.90;;;;;;5450554;26;20459;-72
2024/04/15 10:58:38;;;;;;;4.13;1.73;;;16.10;99.90;;;;;;5437055;26;20301;-74
2024/04/15 11:01:06;;;;;;;1.33;1.23;;;16.10;99.90;;;;;;5450749;26;20467;-73
2024/04/15 11:03:35;;;;;;;1.57;1.47;;;16.30;99.90;;;;;;5452157;26;20544;-73
2024/04/15 11:06:03;;;;;;;1.63;1.43;;;16.60;99.90;;;;;;5452890;26;20717;-72
2024/04/15 11:08:29;;;;;;;1.50;1.40;;;17.00;99.90;;;;;;5450932;26;20463;-73
2024/04/15 11:10:58;;;;;;;1.90;1.70;;;17.30;99.90;;;;;;5454258;26;20520;-73
2024/04/15 11:13:24;;;;;;;2.60;2.03;;;17.50;99.90;;;;;;5457072;26;20575;-74
2024/04/15 11:15:54;;;;;;;4.83;1.97;;;17.50;99.90;;;;;;5457265;26;20455;-73
2024/04/15 11:18:22;;;;;;;3.30;2.53;;;17.30;99.90;;;;;;5453691;26;20241;-73
2024/04/15 11:21:01;;;;;;;1.37;1.27;;;17.10;99.90;;;;;;5463506;26;20471;-72
2024/04/15 11:23:27;;;;;;;2.27;1.20;;;17.00;99.90;;;;;;5459009;26;20513;-73
2024/04/15 11:25:57;;;;;;;2.60;1.37;;;17.00;99.90;;;;;;5451139;26;20526;-73
2024/04/15 11:28:24;;;;;;;1.70;1.33;;;17.00;99.90;;;;;;5450547;26;20910;-73
2024/04/15 11:30:54;;;;;;;1.77;1.53;;;16.90;99.90;;;;;;5450522;26;20467;-73
2024/04/15 11:33:20;;;;;;;3.47;1.57;;;16.70;99.90;;;;;;5446936;26;20471;-73
2024/04/15 11:35:50;;;;;;;1.70;1.50;;;16.40;99.90;;;;;;5450771;26;20459;-73
2024/04/15 11:38:21;;;;;;;3.07;2.00;;;16.10;99.90;;;;;;5449925;26;20475;-73
2024/04/15 11:40:50;;;;;;;1.67;1.57;;;15.80;99.90;;;;;;5450217;26;20475;-73
2024/04/15 11:43:16;;;;;;;2.53;1.60;;;15.70;99.90;;;;;;5450887;26;21078;-73
2024/04/15 11:45:51;;;;;;;3.00;1.83;;;15.70;99.90;;;;;;5451022;26;20597;-73
2024/04/15 11:48:17;;;;;;;1.63;1.50;;;15.60;99.90;;;;;;5449955;26;20863;-73
2024/04/15 11:50:46;;;;;;;1.70;1.53;;;15.50;99.90;;;;;;5450418;26;20472;-73
2024/04/15 11:53:12;;;;;;;2.60;1.67;;;15.30;99.90;;;;;;5450043;26;20455;-73
2024/04/15 11:55:43;;;;;;;2.70;1.77;;;15.20;99.90;;;;;;5450383;26;20577;-73
2024/04/15 11:58:09;;;;;;;2.37;1.60;;;15.10;99.90;;;;;;5449975;26;20284;-74
2024/04/15 12:00:38;;;;;;;6.20;2.17;;;15.10;99.90;;;;;;5439016;26;20531;-73
2024/04/15 12:03:04;;;;;;;1.83;1.73;;;15.20;99.90;;;;;;5450308;26;20326;-73
2024/04/15 12:05:32;;;;;;;2.30;1.73;;;15.20;99.90;;;;;;5450200;26;20479;-73
2024/04/15 12:07:58;;;;;;;2.00;1.80;;;15.30;99.90;;;;;;5449682;26;20794;-73
2024/04/15 12:10:27;;;;;;;5.80;1.70;;;15.50;99.90;;;;;;5449476;26;20564;-73
2024/04/15 12:12:55;;;;;;;4.20;1.87;;;15.70;99.90;;;;;;5450136;26;20341;-74
2024/04/15 12:15:23;;;;;;;4.90;2.27;;;15.90;99.90;;;;;;5446421;26;21470;-73
2024/04/15 12:17:49;;;;;;;3.00;1.83;;;16.00;99.90;;;;;;5449731;26;20506;-73
2024/04/15 12:20:18;;;;;;;3.30;1.93;;;16.10;99.90;;;;;;5449345;26;20467;-73
2024/04/15 12:22:44;;;;;;;2.27;1.67;;;16.10;99.90;;;;;;5449852;26;20622;-73
2024/04/15 12:25:13;;;;;;;1.80;1.70;;;16.20;99.90;;;;;;5449362;26;20467;-73
2024/04/15 12:27:43;;;;;;;3.77;2.10;;;16.50;99.90;;;;;;5449919;26;20280;-73
2024/04/15 12:30:15;;;;;;;2.73;1.60;;;17.00;99.90;;;;;;5448739;26;20463;-73
2024/04/15 12:32:41;;;;;;;4.00;2.03;;;17.50;99.90;;;;;;5436042;26;20640;-73
2024/04/15 12:35:09;;;;;;;6.10;2.03;;;18.30;99.90;;;;;;5449277;26;20467;-73
2024/04/15 12:37:35;;;;;;;2.50;1.63;;;18.60;99.90;;;;;;5437767;26;20542;-74
2024/04/15 12:40:07;;;;;;;2.90;2.03;;;18.60;99.90;;;;;;5448961;26;20592;-73
2024/04/15 12:42:33;;;;;;;1.67;1.50;;;18.20;99.90;;;;;;5449611;26;20459;-73
2024/04/15 12:45:02;;;;;;;2.20;2.00;;;17.70;99.90;;;;;;5449318;26;20459;-73
2024/04/15 12:47:30;;;;;;;1.70;1.60;;;17.40;99.90;;;;;;5449571;26;20579;-73
2024/04/15 12:49:59;;;;;;;2.10;1.80;;;17.50;99.90;;;;;;5448976;26;21065;-73
2024/04/15 12:52:24;;;;;;;4.17;2.20;;;17.80;99.90;;;;;;5447637;26;21070;-74